createdAt,value
2022-12-14T00:00:45.257Z,3.47
2022-12-14T00:03:18.680Z,4.13
2022-12-14T00:05:51.878Z,3.20
2022-12-14T00:08:25.177Z,4.07
2022-12-14T00:11:00.012Z,4.57
2022-12-14T00:13:33.026Z,4.80
2022-12-14T00:16:07.407Z,4.30
2022-12-14T00:18:40.666Z,3.33
2022-12-14T00:21:14.627Z,3.50
2022-12-14T00:23:48.530Z,3.50
2022-12-14T00:26:22.747Z,3.67
2022-12-14T00:28:56.747Z,3.97
2022-12-14T00:31:30.965Z,3.33
2022-12-14T00:34:03.980Z,4.10
2022-12-14T00:36:37.831Z,3.87
2022-12-14T00:39:10.876Z,3.37
2022-12-14T00:41:43.887Z,2.73
2022-12-14T00:44:16.851Z,3.17
2022-12-14T00:46:49.851Z,3.60
2022-12-14T00:49:22.794Z,3.07
2022-12-14T00:51:55.932Z,3.03
2022-12-14T00:54:29.169Z,3.70
2022-12-14T00:57:02.097Z,4.23
2022-12-14T00:59:35.072Z,3.03
2022-12-14T01:02:08.246Z,3.40
2022-12-14T01:04:41.373Z,3.97
2022-12-14T01:07:14.358Z,3.63
2022-12-14T01:09:47.366Z,3.23
2022-12-14T01:12:20.346Z,3.13
2022-12-14T01:14:53.344Z,3.30
2022-12-14T01:17:26.264Z,2.13
2022-12-14T01:19:59.257Z,3.67
2022-12-14T01:22:32.185Z,3.13
2022-12-14T01:25:05.894Z,3.20
2022-12-14T01:27:38.805Z,3.27
2022-12-14T01:30:12.037Z,3.70
2022-12-14T01:32:44.979Z,2.63
2022-12-14T01:35:17.940Z,2.73
2022-12-14T01:37:50.917Z,3.90
2022-12-14T01:40:23.861Z,3.87
2022-12-14T01:42:56.814Z,3.67
2022-12-14T01:45:30.026Z,3.90
2022-12-14T01:48:03.560Z,5.70
2022-12-14T01:50:38.567Z,4.27
2022-12-14T01:53:14.717Z,3.23
2022-12-14T01:55:50.133Z,2.10
2022-12-14T01:58:28.775Z,4.10
2022-12-14T02:01:03.027Z,2.67
2022-12-14T02:03:38.836Z,3.80
2022-12-14T02:06:18.103Z,3.53
2022-12-14T02:08:53.106Z,5.25
2022-12-14T02:11:36.447Z,4.07
2022-12-14T02:14:09.456Z,4.47
2022-12-14T02:16:42.687Z,4.20
2022-12-14T02:19:15.627Z,3.33
2022-12-14T02:21:54.788Z,2.60
2022-12-14T02:24:45.072Z,3.93
2022-12-14T02:27:36.697Z,3.43
2022-12-14T02:30:17.596Z,3.47
2022-12-14T02:32:50.515Z,3.77
2022-12-14T02:35:42.386Z,3.37
2022-12-14T02:38:24.538Z,3.83
2022-12-14T02:41:16.735Z,3.07
2022-12-14T02:44:08.461Z,3.03
2022-12-14T02:46:50.626Z,3.13
2022-12-14T02:49:42.498Z,4.13
2022-12-14T02:52:29.942Z,4.30
2022-12-14T02:55:17.797Z,3.47
2022-12-14T02:57:54.604Z,2.57
2022-12-14T03:00:28.705Z,3.67
2022-12-14T03:03:02.724Z,3.53
2022-12-14T03:05:36.235Z,3.90
2022-12-14T03:08:11.147Z,3.47
2022-12-14T03:11:01.773Z,3.80
2022-12-14T03:13:37.005Z,4.40
2022-12-14T03:16:20.703Z,3.67
2022-12-14T03:19:13.974Z,4.10
2022-12-14T03:21:50.304Z,3.93
2022-12-14T03:24:26.179Z,4.03
2022-12-14T03:27:22.460Z,3.77
2022-12-14T03:29:59.031Z,4.57
2022-12-14T03:32:32.964Z,4.10
2022-12-14T03:35:11.674Z,3.13
2022-12-14T03:37:53.937Z,3.67
2022-12-14T03:40:36.763Z,3.90
2022-12-14T03:43:17.926Z,3.57
2022-12-14T03:45:58.833Z,3.53
2022-12-14T03:48:46.652Z,3.90
2022-12-14T03:51:22.685Z,3.50
2022-12-14T03:54:06.085Z,4.00
2022-12-14T03:56:52.945Z,4.00
2022-12-14T03:59:37.955Z,3.47
2022-12-14T04:02:17.876Z,3.53
2022-12-14T04:04:55.343Z,3.87
2022-12-14T04:07:31.269Z,3.90
2022-12-14T04:10:29.656Z,3.40
2022-12-14T04:13:25.441Z,3.93
2022-12-14T04:16:21.058Z,4.03
2022-12-14T04:19:02.443Z,4.07
2022-12-14T04:21:50.808Z,3.70
2022-12-14T04:24:48.549Z,4.37
2022-12-14T04:27:36.979Z,3.67
2022-12-14T04:30:10.923Z,5.55
2022-12-14T04:32:50.101Z,4.53
2022-12-14T04:35:40.605Z,2.47
2022-12-14T04:38:16.927Z,3.67
2022-12-14T04:40:54.328Z,5.00
2022-12-14T04:43:29.896Z,3.57
2022-12-14T04:46:07.417Z,4.10
2022-12-14T04:48:47.314Z,3.97
2022-12-14T04:51:26.381Z,5.80
2022-12-14T04:54:02.001Z,4.30
2022-12-14T04:56:45.070Z,4.67
2022-12-14T04:59:18.138Z,3.87
2022-12-14T05:01:57.277Z,3.97
2022-12-14T05:04:55.171Z,3.70
2022-12-14T05:07:31.191Z,4.37
2022-12-14T05:10:07.202Z,1.27
2022-12-14T05:12:46.376Z,3.63
2022-12-14T05:15:21.560Z,3.53
2022-12-14T05:17:55.113Z,3.93
2022-12-14T05:20:28.227Z,3.67
2022-12-14T05:23:01.192Z,4.47
2022-12-14T05:25:34.321Z,3.87
2022-12-14T05:28:07.457Z,4.40
2022-12-14T05:30:48.732Z,3.90
2022-12-14T05:33:30.610Z,3.87
2022-12-14T05:36:11.974Z,3.53
2022-12-14T05:38:48.212Z,3.83
2022-12-14T05:41:21.921Z,4.27
2022-12-14T05:43:58.066Z,3.77
2022-12-14T05:46:31.231Z,3.27
2022-12-14T05:49:04.228Z,3.10
2022-12-14T05:51:37.194Z,4.10
2022-12-14T05:54:10.145Z,4.17
2022-12-14T05:56:43.145Z,3.97
2022-12-14T05:59:16.977Z,4.60
2022-12-14T06:01:50.800Z,3.43
2022-12-14T06:04:23.915Z,5.30
2022-12-14T06:06:56.965Z,3.80
2022-12-14T06:09:29.907Z,4.73
2022-12-14T06:12:02.869Z,4.00
2022-12-14T06:14:35.827Z,4.47
2022-12-14T06:17:08.788Z,4.23
2022-12-14T06:19:42.474Z,4.23
2022-12-14T06:22:22.642Z,4.67
2022-12-14T06:24:56.349Z,5.07
2022-12-14T06:27:29.296Z,4.50
2022-12-14T06:30:02.343Z,5.03
2022-12-14T06:32:35.300Z,5.63
2022-12-14T06:35:08.788Z,5.87
2022-12-14T06:37:41.930Z,4.77
2022-12-14T06:40:14.974Z,4.53
2022-12-14T06:42:48.217Z,4.67
2022-12-14T06:45:21.200Z,4.50
2022-12-14T06:47:54.150Z,4.30
2022-12-14T06:50:29.913Z,3.93
2022-12-14T06:53:02.939Z,4.53
2022-12-14T06:55:35.923Z,3.50
2022-12-14T06:58:12.701Z,4.37
2022-12-14T07:00:45.670Z,3.70
2022-12-14T07:03:18.684Z,3.93
2022-12-14T07:05:56.289Z,4.20
2022-12-14T07:08:30.467Z,5.30
2022-12-14T07:11:05.363Z,7.90
2022-12-14T07:13:38.822Z,6.23
2022-12-14T07:16:14.827Z,5.63
2022-12-14T07:18:48.133Z,4.93
2022-12-14T07:21:21.601Z,4.97
2022-12-14T07:23:54.585Z,4.87
2022-12-14T07:26:27.728Z,5.27
2022-12-14T07:29:00.704Z,5.00
2022-12-14T07:31:33.683Z,7.07
2022-12-14T07:34:06.743Z,6.43
2022-12-14T07:36:39.783Z,5.30
2022-12-14T07:39:14.486Z,4.63
2022-12-14T07:41:48.872Z,4.80
2022-12-14T07:44:26.861Z,6.10
2022-12-14T07:46:59.827Z,5.07
2022-12-14T07:49:32.776Z,4.50
2022-12-14T07:52:05.848Z,4.83
2022-12-14T07:54:38.983Z,4.37
2022-12-14T07:57:12.106Z,5.20
2022-12-14T07:59:45.035Z,4.70
2022-12-14T08:02:18.157Z,4.67
2022-12-14T08:04:51.235Z,4.77
2022-12-14T08:07:24.324Z,4.53
2022-12-14T08:09:57.270Z,4.90
2022-12-14T08:12:30.269Z,4.73
2022-12-14T08:15:03.192Z,4.60
2022-12-14T08:17:36.125Z,3.90
2022-12-14T08:20:10.583Z,4.47
2022-12-14T08:22:43.544Z,4.33
2022-12-14T08:25:16.504Z,4.43
2022-12-14T08:27:49.595Z,4.73
2022-12-14T08:30:24.113Z,5.23
2022-12-14T08:32:57.096Z,4.17
2022-12-14T08:35:30.035Z,4.80
2022-12-14T08:38:03.541Z,5.40
2022-12-14T08:40:37.024Z,4.50
2022-12-14T08:43:10.430Z,4.87
2022-12-14T08:45:43.401Z,4.27
2022-12-14T08:48:16.408Z,4.13
2022-12-14T08:50:49.916Z,3.60
2022-12-14T08:53:23.073Z,4.87
2022-12-14T08:55:56.042Z,4.47
2022-12-14T08:58:29.008Z,4.40
2022-12-14T09:01:03.311Z,4.17
2022-12-14T09:03:36.374Z,5.23
2022-12-14T09:06:11.181Z,5.17
2022-12-14T09:08:44.247Z,6.50
2022-12-14T09:11:18.042Z,5.03
2022-12-14T09:13:54.230Z,5.10
2022-12-14T09:16:27.544Z,5.40
2022-12-14T09:19:00.730Z,5.10
2022-12-14T09:21:33.926Z,4.47
2022-12-14T09:24:07.090Z,4.37
2022-12-14T09:26:40.186Z,4.33
2022-12-14T09:29:14.941Z,4.63
2022-12-14T09:31:48.026Z,4.50
2022-12-14T09:34:21.418Z,5.17
2022-12-14T09:36:54.403Z,5.40
2022-12-14T09:39:29.177Z,4.50
2022-12-14T09:42:19.971Z,4.70
2022-12-14T09:45:05.296Z,4.80
2022-12-14T09:47:41.744Z,4.47
2022-12-14T09:50:19.610Z,4.40
2022-12-14T09:52:54.345Z,4.40
2022-12-14T09:55:27.371Z,4.47
2022-12-14T09:58:01.997Z,4.27
2022-12-14T10:00:36.158Z,4.40
2022-12-14T10:03:28.043Z,5.37
2022-12-14T10:06:13.666Z,5.23
2022-12-14T10:08:54.568Z,3.87
2022-12-14T10:11:45.703Z,4.77
2022-12-14T10:14:44.497Z,6.30
2022-12-14T10:17:33.096Z,5.17
2022-12-14T10:20:25.416Z,4.77
2022-12-14T10:22:58.688Z,5.60
2022-12-14T10:25:33.146Z,4.43
2022-12-14T10:28:14.204Z,4.60
2022-12-14T10:30:47.695Z,5.70
2022-12-14T10:33:20.630Z,5.03
2022-12-14T10:35:55.092Z,4.63
2022-12-14T10:38:34.421Z,4.53
2022-12-14T10:41:18.122Z,4.97
2022-12-14T10:43:57.248Z,4.80
2022-12-14T10:46:56.699Z,4.83
2022-12-14T10:49:29.721Z,5.60
2022-12-14T10:52:14.715Z,5.50
2022-12-14T10:54:52.920Z,5.40
2022-12-14T10:57:26.710Z,5.50
2022-12-14T11:00:09.568Z,4.73
2022-12-14T11:02:49.953Z,5.33
2022-12-14T11:05:23.502Z,5.53
2022-12-14T11:07:56.609Z,5.33
2022-12-14T11:10:30.735Z,5.13
2022-12-14T11:13:21.375Z,4.97
2022-12-14T11:15:54.388Z,5.50
2022-12-14T11:18:32.115Z,5.60
2022-12-14T11:21:06.486Z,5.57
2022-12-14T11:23:48.635Z,4.87
2022-12-14T11:26:41.510Z,5.20
2022-12-14T11:29:21.457Z,5.63
2022-12-14T11:31:54.743Z,5.27
2022-12-14T11:34:30.797Z,5.00
2022-12-14T11:37:12.859Z,5.27
2022-12-14T11:39:49.916Z,5.27
2022-12-14T11:42:24.319Z,5.80
2022-12-14T11:45:19.076Z,5.67
2022-12-14T11:48:11.024Z,4.97
2022-12-14T11:50:45.251Z,6.00
2022-12-14T11:53:19.442Z,4.87
2022-12-14T11:55:55.533Z,5.87
2022-12-14T11:58:32.387Z,4.87
2022-12-14T12:01:07.289Z,4.73
2022-12-14T12:03:43.302Z,5.67
2022-12-14T12:06:22.372Z,5.10
2022-12-14T12:08:57.750Z,4.67
2022-12-14T12:11:34.133Z,5.90
2022-12-14T12:14:25.904Z,5.00
2022-12-14T12:16:59.533Z,5.87
2022-12-14T12:19:37.071Z,4.80
2022-12-14T12:22:13.156Z,5.17
2022-12-14T12:25:24.370Z,4.53
2022-12-14T12:27:55.166Z,5.23
2022-12-14T12:30:32.200Z,5.93
2022-12-14T12:33:15.324Z,5.43
2022-12-14T12:35:53.505Z,4.97
2022-12-14T12:38:50.289Z,5.47
2022-12-14T12:41:30.707Z,5.20
2022-12-14T12:44:20.178Z,5.63
2022-12-14T12:47:22.715Z,4.80
2022-12-14T12:49:50.390Z,7.60
2022-12-14T12:52:29.279Z,5.63
2022-12-14T12:55:06.516Z,5.77
2022-12-14T12:57:42.000Z,5.70
2022-12-14T13:00:19.372Z,5.63
2022-12-14T13:02:55.304Z,5.67
2022-12-14T13:05:46.247Z,5.33
2022-12-14T13:08:23.659Z,5.27
2022-12-14T13:11:25.173Z,6.13
2022-12-14T13:13:54.858Z,5.80
2022-12-14T13:16:30.954Z,6.43
2022-12-14T13:19:48.172Z,5.23
2022-12-14T13:22:14.885Z,5.57
2022-12-14T13:24:52.838Z,6.23
2022-12-14T13:27:31.551Z,7.13
2022-12-14T13:30:30.997Z,5.77
2022-12-14T13:33:10.036Z,5.73
2022-12-14T13:35:46.161Z,5.93
2022-12-14T13:38:23.523Z,5.33
2022-12-14T13:41:02.630Z,6.80
2022-12-14T13:43:35.653Z,6.47
2022-12-14T13:46:16.536Z,5.73
2022-12-14T13:48:50.332Z,5.47
2022-12-14T13:51:29.834Z,5.90
2022-12-14T13:54:04.249Z,5.33
2022-12-14T13:56:39.563Z,5.73
2022-12-14T13:59:45.090Z,6.00
2022-12-14T14:02:30.696Z,5.83
2022-12-14T14:05:16.113Z,5.30
2022-12-14T14:07:53.307Z,6.37
2022-12-14T14:10:29.373Z,5.90
2022-12-14T14:13:22.609Z,6.30
2022-12-14T14:16:28.133Z,6.00
2022-12-14T14:19:14.028Z,6.30
2022-12-14T14:25:09.630Z,5.80
2022-12-14T14:27:50.375Z,6.10
2022-12-14T14:30:25.555Z,5.73
2022-12-14T14:33:19.925Z,5.07
2022-12-14T14:35:52.058Z,5.80
2022-12-14T14:38:29.550Z,5.30
2022-12-14T14:41:18.328Z,5.77
2022-12-14T14:43:54.333Z,7.13
2022-12-14T14:46:56.522Z,6.93
2022-12-14T14:49:31.452Z,5.83
2022-12-14T14:52:23.024Z,6.10
2022-12-14T14:55:27.783Z,6.47
2022-12-14T14:57:56.471Z,7.57
2022-12-14T15:00:30.413Z,6.57
2022-12-14T15:03:04.530Z,5.90
2022-12-14T15:05:42.423Z,5.53
2022-12-14T15:08:21.645Z,6.00
2022-12-14T15:10:55.815Z,6.40
2022-12-14T15:13:31.690Z,5.50
2022-12-14T15:16:05.089Z,5.57
2022-12-14T15:18:38.147Z,7.07
2022-12-14T15:21:14.959Z,6.63
2022-12-14T15:23:52.860Z,5.33
2022-12-14T15:26:27.702Z,4.67
2022-12-14T15:29:04.427Z,4.80
2022-12-14T15:31:40.198Z,4.50
2022-12-14T15:34:16.773Z,5.87
2022-12-14T15:36:50.137Z,4.47
2022-12-14T15:39:49.559Z,4.87
2022-12-14T15:42:22.507Z,5.37
2022-12-14T15:44:56.358Z,5.00
2022-12-14T15:47:30.394Z,4.17
2022-12-14T15:50:15.805Z,5.53
2022-12-14T15:52:49.819Z,5.30
2022-12-14T15:55:32.591Z,4.27
2022-12-14T15:58:07.231Z,4.77
2022-12-14T16:00:42.731Z,5.03
2022-12-14T16:03:19.154Z,5.13
2022-12-14T16:05:52.633Z,5.07
2022-12-14T16:08:27.520Z,4.57
2022-12-14T16:11:01.979Z,4.73
2022-12-14T16:13:37.560Z,5.33
2022-12-14T16:16:11.971Z,5.60
2022-12-14T16:18:50.741Z,5.43
2022-12-14T16:21:26.732Z,5.30
2022-12-14T16:24:00.120Z,5.07
2022-12-14T16:26:36.223Z,5.13
2022-12-14T16:29:20.271Z,4.77
2022-12-14T16:32:03.831Z,4.50
2022-12-14T16:34:36.906Z,5.50
2022-12-14T16:37:32.052Z,6.27
2022-12-14T16:40:10.566Z,5.53
2022-12-14T16:42:46.203Z,4.80
2022-12-14T16:45:31.466Z,5.23
2022-12-14T16:48:08.981Z,4.27
2022-12-14T16:50:57.458Z,4.63
2022-12-14T16:53:32.504Z,4.50
2022-12-14T16:56:15.891Z,5.10
2022-12-14T16:59:03.691Z,4.37
2022-12-14T17:01:41.454Z,4.37
2022-12-14T17:04:15.663Z,4.70
2022-12-14T17:06:56.111Z,4.80
2022-12-14T17:09:30.124Z,4.57
2022-12-14T17:12:07.380Z,4.27
2022-12-14T17:14:46.030Z,5.43
2022-12-14T17:17:26.650Z,4.67
2022-12-14T17:19:59.889Z,4.70
2022-12-14T17:22:33.575Z,4.53
2022-12-14T17:25:06.797Z,4.77
2022-12-14T17:27:40.642Z,5.17
2022-12-14T17:30:17.755Z,5.73
2022-12-14T17:32:51.454Z,5.20
2022-12-14T17:35:25.920Z,8.23
2022-12-14T17:37:59.400Z,6.10
2022-12-14T17:40:32.401Z,6.17
2022-12-14T17:43:05.456Z,6.00
2022-12-14T17:45:38.452Z,5.20
2022-12-14T17:48:14.896Z,6.83
2022-12-14T17:50:50.389Z,5.43
2022-12-14T17:53:28.520Z,6.07
2022-12-14T17:56:01.708Z,7.20
2022-12-14T17:58:34.632Z,4.77
2022-12-14T18:01:07.681Z,5.63
2022-12-14T18:03:40.653Z,4.70
2022-12-14T18:06:15.840Z,4.93
2022-12-14T18:08:48.908Z,11.77
2022-12-14T18:11:23.572Z,6.03
2022-12-14T18:13:56.597Z,5.83
2022-12-14T18:16:29.680Z,5.97
2022-12-14T18:19:02.776Z,5.13
2022-12-14T18:21:35.786Z,4.80
2022-12-14T18:24:12.010Z,5.50
2022-12-14T18:26:45.235Z,4.97
2022-12-14T18:29:20.584Z,6.40
2022-12-14T18:31:53.851Z,5.10
2022-12-14T18:34:26.847Z,6.17
2022-12-14T18:36:59.851Z,5.73
2022-12-14T18:39:32.876Z,4.80
2022-12-14T18:42:06.316Z,5.33
2022-12-14T18:44:39.256Z,7.63
2022-12-14T18:47:40.250Z,6.00
2022-12-14T18:50:05.213Z,4.93
2022-12-14T18:52:38.234Z,4.93
2022-12-14T18:55:22.008Z,5.53
2022-12-14T18:57:56.206Z,4.57
2022-12-14T19:00:32.476Z,5.37
2022-12-14T19:03:05.725Z,5.93
2022-12-14T19:05:39.029Z,4.83
2022-12-14T19:08:12.456Z,4.43
2022-12-14T19:10:47.727Z,5.60
2022-12-14T19:13:25.744Z,5.03
2022-12-14T19:15:59.148Z,5.07
2022-12-14T19:18:32.165Z,5.53
2022-12-14T19:21:05.233Z,5.33
2022-12-14T19:23:38.248Z,5.43
2022-12-14T19:26:12.181Z,4.97
2022-12-14T19:28:45.125Z,4.70
2022-12-14T19:31:18.091Z,5.60
2022-12-14T19:33:51.219Z,4.70
2022-12-14T19:36:24.723Z,4.07
2022-12-14T19:38:57.704Z,5.03
2022-12-14T19:41:30.636Z,4.33
2022-12-14T19:44:03.659Z,4.43
2022-12-14T19:46:36.800Z,4.23
2022-12-14T19:49:12.727Z,5.07
2022-12-14T19:51:45.775Z,5.60
2022-12-14T19:54:18.832Z,4.87
2022-12-14T19:56:52.027Z,4.53
2022-12-14T19:59:24.975Z,4.73
2022-12-14T20:01:57.970Z,4.30
2022-12-14T20:04:31.075Z,5.80
2022-12-14T20:07:04.019Z,5.00
2022-12-14T20:09:37.060Z,5.60
2022-12-14T20:12:11.268Z,5.63
2022-12-14T20:14:44.289Z,4.93
2022-12-14T20:17:17.271Z,5.37
2022-12-14T20:19:50.252Z,5.13
2022-12-14T20:22:23.195Z,4.57
2022-12-14T20:24:56.119Z,4.57
2022-12-14T20:27:29.103Z,4.20
2022-12-14T20:30:02.125Z,5.00
2022-12-14T20:32:35.121Z,4.30
2022-12-14T20:35:09.794Z,3.90
2022-12-14T20:37:43.169Z,4.87
2022-12-14T20:40:16.131Z,7.15
2022-12-14T20:42:49.103Z,4.83
2022-12-14T20:45:22.108Z,5.17
2022-12-14T20:47:55.460Z,4.67
2022-12-14T20:50:28.371Z,4.90
2022-12-14T20:53:01.801Z,4.70
2022-12-14T20:55:35.173Z,4.77
2022-12-14T20:58:08.141Z,4.70
2022-12-14T21:00:41.396Z,6.10
2022-12-14T21:03:14.678Z,5.10
2022-12-14T21:05:47.695Z,5.77
2022-12-14T21:08:20.666Z,5.70
2022-12-14T21:11:22.473Z,5.57
2022-12-14T21:13:55.463Z,5.70
2022-12-14T21:16:28.514Z,4.80
2022-12-14T21:19:01.679Z,6.00
2022-12-14T21:21:35.037Z,6.23
2022-12-14T21:24:09.039Z,5.43
2022-12-14T21:26:42.026Z,5.40
2022-12-14T21:29:15.431Z,5.00
2022-12-14T21:31:48.453Z,6.20
2022-12-14T21:34:22.080Z,5.07
2022-12-14T21:36:55.024Z,4.83
2022-12-14T21:39:28.017Z,4.77
2022-12-14T21:42:13.934Z,5.10
2022-12-14T21:44:47.999Z,5.03
2022-12-14T21:47:22.366Z,6.47
2022-12-14T21:49:55.665Z,5.30
2022-12-14T21:52:28.866Z,5.03
2022-12-14T21:55:03.424Z,5.47
2022-12-14T21:57:56.924Z,4.70
2022-12-14T22:00:29.877Z,5.37
2022-12-14T22:03:02.894Z,4.60
2022-12-14T22:05:39.333Z,5.10
2022-12-14T22:08:12.310Z,4.77
2022-12-14T22:10:45.217Z,5.97
2022-12-14T22:13:18.213Z,6.23
2022-12-14T22:15:51.128Z,5.83
2022-12-14T22:18:24.150Z,5.37
2022-12-14T22:21:03.345Z,5.93
2022-12-14T22:23:42.832Z,5.27
2022-12-14T22:26:16.425Z,6.10
2022-12-14T22:28:53.246Z,6.17
2022-12-14T22:31:26.267Z,5.43
2022-12-14T22:33:59.372Z,5.20
2022-12-14T22:36:32.326Z,6.03
2022-12-14T22:39:05.306Z,5.37
2022-12-14T22:41:38.623Z,5.30
2022-12-14T22:44:12.564Z,5.60
2022-12-14T22:46:45.617Z,5.63
2022-12-14T22:49:19.444Z,6.07
2022-12-14T22:51:52.382Z,5.23
2022-12-14T22:54:26.110Z,6.40
2022-12-14T22:57:08.417Z,5.30
2022-12-14T22:59:41.725Z,5.17
2022-12-14T23:02:14.859Z,5.73
2022-12-14T23:04:50.000Z,8.90
2022-12-14T23:07:23.253Z,7.33
2022-12-14T23:10:14.977Z,6.67
2022-12-14T23:13:06.482Z,5.27
2022-12-14T23:15:58.136Z,5.97
2022-12-14T23:18:49.737Z,6.00
2022-12-14T23:21:41.382Z,5.70
2022-12-14T23:24:33.078Z,5.33
2022-12-14T23:27:24.765Z,8.30
2022-12-14T23:30:16.388Z,6.30
2022-12-14T23:33:08.017Z,5.87
2022-12-14T23:35:59.476Z,6.17
2022-12-14T23:38:51.141Z,6.53
2022-12-14T23:41:42.872Z,5.43
2022-12-14T23:44:34.403Z,5.13
2022-12-14T23:47:26.030Z,5.67
2022-12-14T23:50:17.621Z,6.60
2022-12-14T23:53:09.203Z,5.43
2022-12-14T23:56:00.853Z,4.63
2022-12-14T23:58:52.379Z,6.07
